Freeland, Washington
Current Conditions -  °F | °C
As of 8:53 PM on Monday 22 Dec 2014 (Local Time) from KPAE Reporting Station
Overcast Overcast  
Wind Chill: 40°   Ceiling: 10000
Heat Index: 44°   Visibility: 10mi
Dew Point: 38°   Wind: 7mph
Humidity: 79%   Direction: 110°ESE
Pressure: 30.35"   Gusts: NA
Location:  48.01°N, 122.53°W
Report Text: KPAE 230453Z AUTO 11006KT 10SM OVC100 07/03 A3035 RMK AO2 SLP280 T00670033
Loading
Personal Weather Stations






























Interactive Weather Map New forecast layout! Learn more

10-Day Weather Forecast

Advertisements
Track Severe Weather on mobile